Time;durP1;ratioP1;P1;durP2;ratioP2;P2;SDS_P1;SDS_P2;PMS_P1;PMS_P2;Temp;Humidity;BMP_temperature;BMP_pressure;BME280_temperature;BME280_humidity;BME280_pressure;Samples;Min_cycle;Max_cycle;Signal;HPM_P1;HPM_P2
2022/11/19 00:02:04;;;;;;;7.18;2.88;;;13.60;96.70;;;;;;5112985;27;20082;-74
2022/11/19 00:04:32;;;;;;;10.98;3.33;;;13.60;96.70;;;;;;5115041;27;20809;-74
2022/11/19 00:07:00;;;;;;;8.07;3.20;;;13.60;96.70;;;;;;5114840;27;20123;-74
2022/11/19 00:09:29;;;;;;;7.82;3.20;;;13.60;96.70;;;;;;5097402;27;20404;-74
2022/11/19 00:14:44;;;;;;;8.63;3.77;;;13.50;96.70;;;;;;5108610;27;20512;-74
2022/11/19 00:17:12;;;;;;;9.90;3.75;;;13.40;96.70;;;;;;5117823;27;20337;-74
2022/11/19 00:19:40;;;;;;;9.95;3.92;;;13.40;96.70;;;;;;5112659;27;20484;-73
2022/11/19 00:22:08;;;;;;;8.05;3.15;;;13.40;96.70;;;;;;5095943;27;20039;-73
2022/11/19 00:24:38;;;;;;;8.85;2.85;;;13.50;96.70;;;;;;5111628;27;20035;-73
2022/11/19 00:27:06;;;;;;;6.38;2.80;;;13.50;96.70;;;;;;5112072;27;20044;-73
2022/11/19 00:29:34;;;;;;;7.53;2.50;;;13.50;96.70;;;;;;5095250;27;20039;-73
2022/11/19 00:32:02;;;;;;;5.97;2.95;;;13.60;96.70;;;;;;5116774;27;20586;-73
2022/11/19 00:34:30;;;;;;;8.55;3.47;;;13.60;96.70;;;;;;5089794;27;20134;-74
2022/11/19 00:36:58;;;;;;;9.73;3.90;;;13.60;96.70;;;;;;5090148;28;20050;-73
2022/11/19 00:39:26;;;;;;;7.60;3.10;;;13.50;96.70;;;;;;5089570;28;20097;-74
2022/11/19 00:41:55;;;;;;;8.43;2.90;;;13.50;96.70;;;;;;5120337;27;20042;-73
2022/11/19 00:44:23;;;;;;;8.57;3.28;;;13.50;96.70;;;;;;5103062;27;20069;-74
2022/11/19 00:46:52;;;;;;;10.85;3.05;;;13.60;96.70;;;;;;5084003;28;20048;-74
2022/11/19 00:49:20;;;;;;;9.10;3.15;;;13.60;96.70;;;;;;5118686;27;20040;-72
2022/11/19 00:51:48;;;;;;;8.02;3.28;;;13.60;96.70;;;;;;5114821;27;20036;-73
2022/11/19 00:54:16;;;;;;;6.93;2.72;;;13.60;96.70;;;;;;5120101;27;20120;-74
2022/11/19 00:56:44;;;;;;;7.47;2.60;;;13.60;96.70;;;;;;5107178;27;20040;-74
2022/11/19 00:59:13;;;;;;;5.32;2.50;;;13.60;96.70;;;;;;5091489;27;20142;-73
2022/11/19 01:01:41;;;;;;;10.25;2.90;;;13.50;96.70;;;;;;5076013;28;20225;-73
2022/11/19 01:04:09;;;;;;;7.30;2.78;;;13.50;96.70;;;;;;5113648;27;20060;-73
2022/11/19 01:06:37;;;;;;;10.02;2.63;;;13.60;96.70;;;;;;5085529;28;20043;-73
2022/11/19 01:09:05;;;;;;;7.07;2.25;;;13.50;96.70;;;;;;5085529;28;20071;-74
2022/11/19 01:11:35;;;;;;;6.43;2.65;;;13.50;96.70;;;;;;5093661;28;20116;-73
2022/11/19 01:14:04;;;;;;;7.63;2.92;;;13.50;96.70;;;;;;5117527;27;20055;-74
2022/11/19 01:16:36;;;;;;;5.72;2.50;;;13.50;96.70;;;;;;5112574;27;20136;-73
2022/11/19 01:19:06;;;;;;;6.00;2.33;;;13.40;96.70;;;;;;5096656;27;20124;-74
2022/11/19 01:21:35;;;;;;;8.40;2.83;;;13.40;96.70;;;;;;5091539;27;20043;-74
2022/11/19 01:24:05;;;;;;;7.03;2.72;;;13.40;96.70;;;;;;5109786;27;20242;-73
2022/11/19 01:26:33;;;;;;;7.60;2.50;;;13.40;96.70;;;;;;5110304;27;20070;-73
2022/11/19 01:29:02;;;;;;;7.28;2.80;;;13.40;96.70;;;;;;5085728;28;20063;-73
2022/11/19 01:31:30;;;;;;;8.57;2.50;;;13.30;96.70;;;;;;5084125;28;20070;-74
2022/11/19 01:33:59;;;;;;;7.93;3.33;;;13.30;96.70;;;;;;5120889;27;20084;-73
2022/11/19 01:36:29;;;;;;;8.73;3.22;;;13.40;96.70;;;;;;5068568;27;20203;-73
2022/11/19 01:38:57;;;;;;;7.53;3.25;;;13.30;96.70;;;;;;5099347;28;20488;-73
2022/11/19 01:41:28;;;;;;;7.38;2.90;;;13.30;96.70;;;;;;5090927;27;20135;-73
2022/11/19 01:43:58;;;;;;;9.63;3.83;;;13.30;96.70;;;;;;5119355;27;20501;-73
2022/11/19 01:46:28;;;;;;;10.75;3.60;;;13.40;96.70;;;;;;5108831;27;20142;-73
2022/11/19 01:49:01;;;;;;;7.30;3.30;;;13.40;96.70;;;;;;5099046;27;20052;-73
2022/11/19 01:51:32;;;;;;;5.20;2.65;;;13.40;96.70;;;;;;5115866;27;20058;-73
2022/11/19 01:54:06;;;;;;;12.20;3.80;;;13.50;96.70;;;;;;5119485;27;20109;-73
2022/11/19 01:56:36;;;;;;;6.57;2.80;;;13.40;96.70;;;;;;5106280;27;20055;-73
2022/11/19 01:59:08;;;;;;;9.10;3.42;;;13.50;96.70;;;;;;5101837;27;20031;-73
2022/11/19 02:01:36;;;;;;;8.07;3.15;;;13.40;96.70;;;;;;5102511;27;20038;-74
2022/11/19 02:04:06;;;;;;;10.70;3.40;;;13.40;96.70;;;;;;5089792;28;20114;-73
2022/11/19 02:06:35;;;;;;;9.55;3.10;;;13.40;96.70;;;;;;5117499;27;20039;-73
2022/11/19 02:09:03;;;;;;;7.40;2.95;;;13.40;96.70;;;;;;5112301;27;20046;-73
2022/11/19 02:12:07;;;;;;;10.85;3.10;;;13.40;96.70;;;;;;5103802;27;20044;-74
2022/11/19 02:14:51;;;;;;;9.23;2.90;;;13.30;96.70;;;;;;5105539;27;20562;-73
2022/11/19 02:17:34;;;;;;;7.07;2.67;;;13.20;96.70;;;;;;5094502;27;20047;-74
2022/11/19 02:20:43;;;;;;;7.00;2.78;;;13.30;96.70;;;;;;5109377;27;20087;-73
2022/11/19 02:23:52;;;;;;;12.35;3.20;;;13.20;96.70;;;;;;5106228;27;20069;-73
2022/11/19 02:26:51;;;;;;;6.03;2.47;;;13.20;96.70;;;;;;5108482;27;20127;-74
2022/11/19 02:29:43;;;;;;;6.60;2.53;;;13.30;96.70;;;;;;5088945;28;20039;-74
2022/11/19 02:32:15;;;;;;;8.10;2.10;;;13.20;96.70;;;;;;5100688;27;20112;-73
2022/11/19 02:34:50;;;;;;;6.07;1.88;;;13.20;96.70;;;;;;5102686;27;20059;-74
2022/11/19 02:37:25;;;;;;;7.30;2.72;;;13.20;96.70;;;;;;5112548;27;20035;-73
2022/11/19 02:40:04;;;;;;;7.70;2.42;;;13.30;96.70;;;;;;5089865;27;20039;-73
2022/11/19 02:42:37;;;;;;;9.85;2.58;;;13.20;96.70;;;;;;5098135;28;20047;-74
2022/11/19 02:45:10;;;;;;;5.80;2.20;;;13.20;96.70;;;;;;5070698;28;20409;-74
2022/11/19 02:47:41;;;;;;;6.40;2.30;;;13.20;96.70;;;;;;5054927;28;20052;-73
2022/11/19 02:50:14;;;;;;;5.85;2.28;;;13.20;96.70;;;;;;5062942;28;20135;-73
2022/11/19 02:52:42;;;;;;;7.38;2.40;;;13.30;96.70;;;;;;5072409;28;20530;-73
2022/11/19 02:55:12;;;;;;;5.88;2.13;;;13.30;96.70;;;;;;5065116;28;20046;-73
2022/11/19 02:57:43;;;;;;;6.05;2.38;;;13.20;96.70;;;;;;5067981;28;20514;-74
2022/11/19 03:06:01;;;;;;;6.57;2.17;;;13.00;96.70;;;;;;5056053;28;20049;-73
2022/11/19 03:08:29;;;;;;;7.53;2.83;;;13.10;96.70;;;;;;5070427;28;20060;-74
2022/11/19 03:11:06;;;;;;;7.50;2.78;;;13.10;96.70;;;;;;5074957;28;20040;-74
2022/11/19 03:16:40;;;;;;;7.70;3.10;;;13.10;96.70;;;;;;5077090;28;20044;-73
2022/11/19 03:19:31;;;;;;;6.97;2.45;;;13.20;96.70;;;;;;5073525;28;20130;-73
2022/11/19 03:22:05;;;;;;;6.40;2.53;;;13.20;96.70;;;;;;5072021;28;20063;-73
2022/11/19 03:24:36;;;;;;;9.18;2.90;;;13.20;96.70;;;;;;5079227;28;20132;-73
2022/11/19 03:27:08;;;;;;;7.40;2.45;;;13.20;96.70;;;;;;5075234;28;20101;-74
2022/11/19 03:29:40;;;;;;;9.32;2.92;;;13.20;96.70;;;;;;5078197;28;20244;-74
2022/11/19 03:32:13;;;;;;;8.15;2.08;;;13.20;96.70;;;;;;5069736;28;20052;-73
2022/11/19 03:34:46;;;;;;;6.55;2.30;;;13.10;96.70;;;;;;5069595;28;20064;-74
2022/11/19 03:37:17;;;;;;;9.65;2.25;;;13.10;96.70;;;;;;5065295;28;20063;-74
2022/11/19 03:39:48;;;;;;;9.40;2.05;;;13.10;96.70;;;;;;5076531;28;20066;-74
2022/11/19 03:42:19;;;;;;;4.82;2.00;;;13.10;96.70;;;;;;5058030;28;20040;-73
2022/11/19 03:44:50;;;;;;;6.03;2.53;;;13.10;96.70;;;;;;5077876;28;20140;-74
2022/11/19 03:47:21;;;;;;;10.02;2.17;;;13.10;96.70;;;;;;5073251;28;20063;-74
2022/11/19 03:49:57;;;;;;;8.07;2.47;;;13.20;96.70;;;;;;5076493;28;20615;-73
2022/11/19 03:52:25;;;;;;;5.57;1.83;;;13.20;96.70;;;;;;5074526;28;20078;-74
2022/11/19 03:54:53;;;;;;;8.90;1.90;;;13.20;96.70;;;;;;5075269;28;20151;-73
2022/11/19 03:57:23;;;;;;;4.70;1.67;;;13.20;96.70;;;;;;5067887;28;20071;-74
2022/11/19 03:59:50;;;;;;;5.20;1.67;;;13.20;96.70;;;;;;5078979;28;20118;-73
2022/11/19 04:02:18;;;;;;;6.97;1.80;;;13.20;96.70;;;;;;5068181;28;20238;-73
2022/11/19 04:04:46;;;;;;;4.95;1.55;;;13.20;96.70;;;;;;5074242;28;20063;-74
2022/11/19 04:07:18;;;;;;;4.15;1.40;;;13.10;96.70;;;;;;5069436;28;20117;-74
2022/11/19 04:09:47;;;;;;;6.30;2.00;;;13.00;96.70;;;;;;5074260;28;20119;-74
2022/11/19 04:12:18;;;;;;;5.20;2.00;;;13.10;96.70;;;;;;5065928;28;20516;-74
2022/11/19 04:14:46;;;;;;;6.47;2.10;;;13.10;96.70;;;;;;5070750;28;20770;-74
2022/11/19 04:17:15;;;;;;;7.20;2.15;;;13.10;96.70;;;;;;5079456;28;20040;-73
2022/11/19 04:19:43;;;;;;;6.03;1.73;;;13.20;96.70;;;;;;5050584;28;20073;-74
2022/11/19 04:22:11;;;;;;;7.70;1.95;;;13.10;96.70;;;;;;5075714;28;20131;-73
2022/11/19 04:24:40;;;;;;;6.93;2.55;;;13.10;96.70;;;;;;5072426;28;20044;-73
2022/11/19 04:27:08;;;;;;;9.43;2.17;;;13.10;96.70;;;;;;5079218;28;20299;-74
2022/11/19 04:29:36;;;;;;;4.63;2.03;;;13.00;96.70;;;;;;5076527;28;20039;-74
2022/11/19 04:32:05;;;;;;;5.65;2.13;;;13.10;96.70;;;;;;5080956;28;20450;-74
2022/11/19 04:34:32;;;;;;;7.93;2.20;;;13.10;96.70;;;;;;5066713;28;20127;-74
2022/11/19 04:37:00;;;;;;;6.90;2.35;;;13.10;96.70;;;;;;5078282;28;20056;-74
2022/11/19 04:39:28;;;;;;;7.25;2.58;;;13.10;96.70;;;;;;5071039;28;20126;-73
2022/11/19 04:41:58;;;;;;;8.95;2.33;;;13.10;96.70;;;;;;5077608;28;20574;-74
2022/11/19 04:44:26;;;;;;;9.45;2.63;;;13.20;96.70;;;;;;5068272;28;20051;-73
2022/11/19 04:46:54;;;;;;;8.95;2.67;;;13.20;96.70;;;;;;5057138;28;20678;-74
2022/11/19 04:49:22;;;;;;;7.55;1.92;;;13.10;96.70;;;;;;5070877;28;20078;-74
2022/11/19 04:51:50;;;;;;;6.32;2.30;;;13.20;96.70;;;;;;5070698;28;20147;-73
2022/11/19 04:54:17;;;;;;;6.85;2.30;;;13.20;96.70;;;;;;5073958;28;20044;-73
2022/11/19 04:56:45;;;;;;;6.82;2.67;;;13.20;96.70;;;;;;5074959;28;20481;-73
2022/11/19 04:59:15;;;;;;;8.88;2.40;;;13.20;96.70;;;;;;5068547;28;20838;-74
2022/11/19 05:01:43;;;;;;;8.10;2.70;;;13.20;96.70;;;;;;5061844;28;20097;-75
2022/11/19 05:04:12;;;;;;;6.68;2.13;;;13.20;96.70;;;;;;5073836;28;20056;-74
2022/11/19 05:06:40;;;;;;;7.97;2.15;;;13.20;96.70;;;;;;5077051;28;20449;-75
2022/11/19 05:09:08;;;;;;;8.38;2.38;;;13.20;96.70;;;;;;5076504;28;20050;-74
2022/11/19 05:11:36;;;;;;;6.30;2.30;;;13.20;96.70;;;;;;5077344;28;20036;-75
2022/11/19 05:14:04;;;;;;;6.45;1.90;;;13.30;96.70;;;;;;5080058;28;20036;-74
2022/11/19 05:16:33;;;;;;;8.32;2.38;;;13.30;96.70;;;;;;5074938;28;20309;-75
2022/11/19 05:19:01;;;;;;;6.85;1.90;;;13.30;96.70;;;;;;5068794;28;20047;-74
2022/11/19 05:21:30;;;;;;;7.53;2.13;;;13.30;96.70;;;;;;5072021;28;20176;-75
2022/11/19 05:23:58;;;;;;;7.85;2.30;;;13.30;96.70;;;;;;5073876;28;20402;-75
2022/11/19 05:26:26;;;;;;;8.05;2.38;;;13.30;96.70;;;;;;5074207;28;20114;-75
2022/11/19 05:28:54;;;;;;;6.00;1.98;;;13.30;96.70;;;;;;5071269;28;20041;-75
2022/11/19 05:31:22;;;;;;;8.38;2.60;;;13.30;96.70;;;;;;5070611;28;20067;-74
2022/11/19 05:33:52;;;;;;;5.40;2.03;;;13.30;96.70;;;;;;5071275;28;20419;-75
2022/11/19 05:36:20;;;;;;;5.90;2.47;;;13.30;96.70;;;;;;5066017;28;20040;-74
2022/11/19 05:38:48;;;;;;;5.18;2.15;;;13.30;96.70;;;;;;5073640;28;20063;-74
2022/11/19 05:41:17;;;;;;;5.93;1.83;;;13.30;96.70;;;;;;5072820;28;20130;-75
2022/11/19 05:43:45;;;;;;;11.23;2.88;;;13.30;96.70;;;;;;5071601;28;20140;-74
2022/11/19 05:46:13;;;;;;;5.93;2.10;;;13.30;96.70;;;;;;5066440;28;20417;-75
2022/11/19 05:48:41;;;;;;;8.63;2.88;;;13.30;96.70;;;;;;5071185;28;20572;-74
2022/11/19 05:51:14;;;;;;;7.55;2.20;;;13.30;96.70;;;;;;5055841;28;20308;-73
2022/11/19 05:53:42;;;;;;;7.38;2.00;;;13.30;96.70;;;;;;5082439;28;20440;-73
2022/11/19 05:56:11;;;;;;;9.63;1.90;;;13.30;96.70;;;;;;5066934;28;20486;-73
2022/11/19 05:58:39;;;;;;;7.30;1.98;;;13.30;96.70;;;;;;5073161;28;20057;-73
2022/11/19 06:01:07;;;;;;;7.18;2.03;;;13.30;96.70;;;;;;5070007;28;20046;-73
2022/11/19 06:03:35;;;;;;;6.65;1.83;;;13.30;96.70;;;;;;5060912;28;20059;-73
2022/11/19 06:06:03;;;;;;;5.38;1.85;;;13.30;96.70;;;;;;5068628;28;20439;-73
2022/11/19 06:08:33;;;;;;;7.35;2.08;;;13.30;96.70;;;;;;5079564;28;20064;-73
2022/11/19 06:11:03;;;;;;;5.50;1.80;;;13.30;96.70;;;;;;5069389;28;20043;-73
2022/11/19 06:13:31;;;;;;;5.35;2.00;;;13.30;96.70;;;;;;5078669;28;20916;-73
2022/11/19 06:15:59;;;;;;;6.95;2.00;;;13.30;96.70;;;;;;5061276;28;20044;-73
2022/11/19 06:18:27;;;;;;;5.85;1.75;;;13.30;96.70;;;;;;5069030;28;20139;-73
2022/11/19 06:20:55;;;;;;;6.78;2.13;;;13.30;96.70;;;;;;5067356;28;20567;-73
2022/11/19 06:23:23;;;;;;;4.18;1.40;;;13.30;96.70;;;;;;5077154;28;20093;-73
2022/11/19 06:25:57;;;;;;;9.48;2.28;;;13.30;96.70;;;;;;5064462;28;20283;-73
2022/11/19 06:28:28;;;;;;;9.63;1.95;;;13.30;96.70;;;;;;5075992;28;20040;-72
2022/11/19 06:30:56;;;;;;;5.88;1.88;;;13.30;96.70;;;;;;5072843;28;20098;-73
2022/11/19 06:33:24;;;;;;;6.88;2.42;;;13.30;96.70;;;;;;5073457;28;20158;-73
2022/11/19 06:35:52;;;;;;;7.20;1.95;;;13.30;96.70;;;;;;5070223;28;20043;-73
2022/11/19 06:38:20;;;;;;;7.30;2.08;;;13.30;96.70;;;;;;5062899;28;20131;-72
2022/11/19 06:40:48;;;;;;;6.22;2.33;;;13.30;96.70;;;;;;5051286;28;20046;-72
2022/11/19 06:43:18;;;;;;;8.38;2.45;;;13.30;96.70;;;;;;5056083;28;20044;-73
2022/11/19 06:45:46;;;;;;;11.23;2.28;;;13.30;96.70;;;;;;5070998;28;20052;-73
2022/11/19 06:48:14;;;;;;;8.18;2.40;;;13.30;96.70;;;;;;5087376;28;20393;-73
2022/11/19 06:50:44;;;;;;;9.65;2.65;;;13.30;96.70;;;;;;5078133;28;20040;-74
2022/11/19 06:53:12;;;;;;;6.13;2.17;;;13.30;96.70;;;;;;5073483;28;20101;-72
2022/11/19 06:55:40;;;;;;;8.32;2.17;;;13.30;96.70;;;;;;5068636;28;20516;-72
2022/11/19 06:58:08;;;;;;;12.25;2.47;;;13.30;96.70;;;;;;5068375;28;20052;-74
2022/11/19 07:00:38;;;;;;;8.98;3.53;;;13.30;96.70;;;;;;5087914;28;20063;-74
2022/11/19 07:03:06;;;;;;;11.40;4.10;;;13.40;96.70;;;;;;5072743;28;20059;-73
2022/11/19 07:05:34;;;;;;;11.02;5.28;;;13.40;96.70;;;;;;5083450;28;20048;-74
2022/11/19 07:08:03;;;;;;;12.63;5.80;;;13.40;96.70;;;;;;5085613;28;20807;-74
2022/11/19 07:10:32;;;;;;;10.93;4.95;;;13.40;96.70;;;;;;5080037;28;20050;-74
2022/11/19 07:13:00;;;;;;;14.32;5.20;;;13.40;96.70;;;;;;5065508;28;20090;-74
2022/11/19 07:15:29;;;;;;;15.10;4.72;;;13.40;96.70;;;;;;5080674;28;20131;-74
2022/11/19 07:17:59;;;;;;;8.30;3.75;;;13.40;96.70;;;;;;5080761;28;20047;-74
2022/11/19 07:20:27;;;;;;;7.78;3.33;;;13.40;96.70;;;;;;5068005;28;20048;-74
2022/11/19 07:22:55;;;;;;;6.45;2.35;;;13.40;96.70;;;;;;5067073;28;20040;-73
2022/11/19 07:25:26;;;;;;;10.10;2.80;;;13.40;96.70;;;;;;5071443;28;20784;-74
2022/11/19 07:27:54;;;;;;;6.45;2.47;;;13.40;96.70;;;;;;5068872;28;20044;-72
2022/11/19 07:30:22;;;;;;;10.73;2.75;;;13.40;96.70;;;;;;5095257;28;20056;-72
2022/11/19 07:32:53;;;;;;;8.60;2.83;;;13.40;96.70;;;;;;5089280;28;20048;-73
2022/11/19 07:35:22;;;;;;;6.32;2.85;;;13.40;96.70;;;;;;5079343;28;20040;-72
2022/11/19 07:37:50;;;;;;;9.38;2.58;;;13.40;96.70;;;;;;5080838;28;20047;-73
2022/11/19 07:40:19;;;;;;;8.63;2.45;;;13.40;96.70;;;;;;5090803;28;20056;-72
2022/11/19 07:42:49;;;;;;;8.63;2.95;;;13.40;96.70;;;;;;5096608;28;20043;-72
2022/11/19 07:45:19;;;;;;;8.18;2.80;;;13.40;96.70;;;;;;5099638;28;20052;-73
2022/11/19 07:47:47;;;;;;;6.75;2.92;;;13.50;96.70;;;;;;5090778;28;20032;-73
2022/11/19 07:50:16;;;;;;;10.93;2.80;;;13.50;96.70;;;;;;5111224;28;20094;-73
2022/11/19 07:52:46;;;;;;;10.73;3.15;;;13.50;96.70;;;;;;5083658;28;20088;-72
2022/11/19 07:55:14;;;;;;;8.38;4.10;;;13.50;96.70;;;;;;5095411;27;20048;-73
2022/11/19 07:57:43;;;;;;;10.15;4.30;;;13.60;96.70;;;;;;5090760;27;20588;-73
2022/11/19 08:00:12;;;;;;;8.10;4.88;;;13.60;96.70;;;;;;5100908;27;20043;-73
2022/11/19 08:02:41;;;;;;;11.15;5.95;;;13.60;96.70;;;;;;5092432;27;20065;-73
2022/11/19 08:05:09;;;;;;;9.07;4.60;;;13.60;96.70;;;;;;5096894;28;20081;-73
2022/11/19 08:07:38;;;;;;;11.45;5.05;;;13.60;96.70;;;;;;5101003;27;20116;-73
2022/11/19 08:10:09;;;;;;;16.95;5.93;;;13.60;96.70;;;;;;5110107;27;20039;-73
2022/11/19 08:12:37;;;;;;;13.18;5.68;;;13.70;96.70;;;;;;5120554;27;20058;-73
2022/11/19 08:15:07;;;;;;;15.40;6.03;;;13.80;96.70;;;;;;5107578;27;20032;-73
2022/11/19 08:20:22;;;;;;;12.07;5.53;;;14.00;96.70;;;;;;5106273;27;20511;-73
2022/11/19 08:22:51;;;;;;;10.68;4.60;;;14.10;96.70;;;;;;5119590;27;20073;-73
2022/11/19 08:25:21;;;;;;;9.90;3.72;;;14.10;96.70;;;;;;5094412;27;20663;-73
2022/11/19 08:27:49;;;;;;;11.13;3.97;;;14.10;96.70;;;;;;5103846;27;20039;-73
2022/11/19 08:30:17;;;;;;;8.35;3.70;;;14.10;96.70;;;;;;5111446;27;20055;-73
2022/11/19 08:32:45;;;;;;;7.72;3.60;;;14.20;96.70;;;;;;5120090;27;20106;-73
2022/11/19 08:35:13;;;;;;;8.95;3.50;;;14.20;96.70;;;;;;5089386;27;20071;-73
2022/11/19 08:37:42;;;;;;;7.68;3.80;;;14.20;96.70;;;;;;5098504;27;20096;-73
2022/11/19 08:40:10;;;;;;;6.53;3.53;;;14.30;96.70;;;;;;5109093;27;20112;-72
2022/11/19 08:42:58;;;;;;;11.15;4.13;;;14.30;96.70;;;;;;5119877;27;20126;-73
2022/11/19 08:45:29;;;;;;;11.23;3.72;;;14.30;96.70;;;;;;5111615;27;20043;-73
2022/11/19 08:47:59;;;;;;;6.53;3.20;;;14.30;96.70;;;;;;5100452;28;20545;-73
2022/11/19 08:50:28;;;;;;;13.02;3.80;;;14.40;96.70;;;;;;5118751;27;20043;-73
2022/11/19 08:52:58;;;;;;;7.65;2.78;;;14.40;96.70;;;;;;5107902;27;20050;-73
2022/11/19 08:55:28;;;;;;;7.15;3.45;;;14.50;96.70;;;;;;5123508;27;20496;-73
2022/11/19 08:58:02;;;;;;;11.60;3.72;;;14.60;96.70;;;;;;5117656;27;20035;-73
2022/11/19 09:00:32;;;;;;;6.95;3.63;;;14.60;96.70;;;;;;5093871;27;20394;-73
2022/11/19 09:03:00;;;;;;;8.57;3.20;;;14.60;96.70;;;;;;5110823;27;20085;-73
2022/11/19 09:05:28;;;;;;;10.85;3.50;;;14.60;96.70;;;;;;5095008;28;20051;-73
2022/11/19 09:07:57;;;;;;;12.25;3.53;;;14.70;96.70;;;;;;5087265;27;20063;-73
2022/11/19 09:10:25;;;;;;;7.47;3.95;;;14.70;96.70;;;;;;5095223;27;20123;-73
2022/11/19 09:12:53;;;;;;;12.20;3.78;;;14.80;96.70;;;;;;5109916;27;20477;-73
2022/11/19 09:15:22;;;;;;;7.97;3.70;;;14.70;96.70;;;;;;5079177;28;20785;-73
2022/11/19 09:17:51;;;;;;;9.25;3.42;;;14.70;96.70;;;;;;5110626;27;20044;-73
2022/11/19 09:20:19;;;;;;;10.15;3.55;;;14.70;96.70;;;;;;5113955;27;20150;-72
2022/11/19 09:22:47;;;;;;;6.88;3.00;;;14.80;96.70;;;;;;5108339;27;20072;-74
2022/11/19 09:25:15;;;;;;;7.75;3.10;;;14.80;96.70;;;;;;5117049;27;20062;-73
2022/11/19 09:27:43;;;;;;;8.23;3.50;;;14.80;96.70;;;;;;5079070;27;20137;-73
2022/11/19 09:30:11;;;;;;;7.00;3.08;;;14.80;96.70;;;;;;5112065;27;20067;-74
2022/11/19 09:32:41;;;;;;;7.72;3.08;;;14.80;96.70;;;;;;5093570;27;20054;-72
2022/11/19 09:35:09;;;;;;;8.45;3.15;;;14.80;96.70;;;;;;5104729;27;20051;-73
2022/11/19 09:37:37;;;;;;;9.55;3.15;;;14.70;96.70;;;;;;5107666;27;20075;-73
2022/11/19 09:40:07;;;;;;;10.23;3.20;;;14.70;96.70;;;;;;5100265;27;20121;-73
2022/11/19 09:42:42;;;;;;;8.95;3.20;;;14.60;96.70;;;;;;5107968;27;20219;-73
2022/11/19 09:45:18;;;;;;;6.25;3.25;;;14.70;96.70;;;;;;5078838;28;20595;-73
2022/11/19 09:48:14;;;;;;;8.00;3.70;;;14.70;96.70;;;;;;5071240;28;20414;-73
2022/11/19 09:50:49;;;;;;;6.63;3.00;;;14.80;96.70;;;;;;5069904;28;20597;-74
2022/11/19 09:53:21;;;;;;;8.25;3.50;;;14.80;96.70;;;;;;5067214;28;20074;-73
2022/11/19 09:55:51;;;;;;;11.05;3.95;;;14.90;96.70;;;;;;5049918;28;20051;-73
2022/11/19 09:58:23;;;;;;;10.05;4.18;;;14.90;96.70;;;;;;5087782;27;20498;-73
2022/11/19 10:00:51;;;;;;;9.27;3.95;;;14.90;96.70;;;;;;5066145;28;20048;-74
2022/11/19 10:03:23;;;;;;;9.70;3.33;;;15.00;96.70;;;;;;5066688;28;20044;-73
2022/11/19 10:06:23;;;;;;;8.45;3.67;;;15.00;96.70;;;;;;5059249;28;20046;-73
2022/11/19 10:09:16;;;;;;;9.35;4.40;;;15.00;96.70;;;;;;5068919;28;20568;-73
2022/11/19 10:11:56;;;;;;;9.90;3.50;;;15.10;96.70;;;;;;5072177;28;20050;-73
2022/11/19 10:14:52;;;;;;;8.90;3.92;;;15.10;96.70;;;;;;5075160;28;20086;-73
2022/11/19 10:17:30;;;;;;;9.38;3.85;;;15.10;96.70;;;;;;5074552;28;20044;-73
2022/11/19 10:20:12;;;;;;;9.38;3.45;;;15.10;96.70;;;;;;5067068;28;20520;-74
2022/11/19 10:22:49;;;;;;;6.43;3.33;;;15.20;96.70;;;;;;5074396;28;20726;-73
2022/11/19 10:25:28;;;;;;;6.88;3.45;;;15.20;96.70;;;;;;5073542;28;20652;-73
2022/11/19 10:28:02;;;;;;;7.28;3.00;;;15.10;96.70;;;;;;5077454;28;20058;-73
2022/11/19 10:30:30;;;;;;;7.45;3.35;;;15.10;96.70;;;;;;5069140;28;20044;-73
2022/11/19 10:33:02;;;;;;;7.70;3.58;;;15.10;96.70;;;;;;5081222;28;20127;-73
2022/11/19 10:35:37;;;;;;;5.75;3.08;;;15.10;96.70;;;;;;5063839;28;20048;-73
2022/11/19 10:38:10;;;;;;;11.35;3.63;;;15.00;96.70;;;;;;5064105;28;20038;-74
2022/11/19 10:40:42;;;;;;;10.65;3.35;;;15.00;96.70;;;;;;5067323;28;20665;-73
2022/11/19 10:43:21;;;;;;;7.78;3.15;;;15.00;96.70;;;;;;5085411;28;20139;-73
2022/11/19 10:45:50;;;;;;;7.18;3.40;;;14.90;96.70;;;;;;5072147;28;20048;-73
2022/11/19 10:48:21;;;;;;;6.25;3.15;;;14.90;96.70;;;;;;5069219;28;20072;-73
2022/11/19 10:50:51;;;;;;;7.30;3.60;;;14.90;96.70;;;;;;5080916;28;20068;-73
2022/11/19 10:53:24;;;;;;;7.30;3.40;;;14.90;96.70;;;;;;5090860;28;20417;-75
2022/11/19 10:55:55;;;;;;;10.95;4.25;;;14.80;96.70;;;;;;5067156;28;20048;-74
2022/11/19 10:58:25;;;;;;;13.45;4.82;;;14.80;96.70;;;;;;5069137;28;20044;-73
2022/11/19 11:00:55;;;;;;;7.80;3.88;;;14.90;96.70;;;;;;5081480;28;20074;-74
2022/11/19 11:03:26;;;;;;;12.48;4.30;;;14.90;96.70;;;;;;5075173;28;20051;-73
2022/11/19 11:05:58;;;;;;;8.35;3.97;;;14.90;96.70;;;;;;5074151;28;20059;-73
2022/11/19 11:08:26;;;;;;;8.35;4.35;;;14.90;96.70;;;;;;5070224;28;21144;-74
2022/11/19 11:10:54;;;;;;;9.45;3.90;;;15.00;96.70;;;;;;5075325;28;20520;-73
2022/11/19 11:16:25;;;;;;;10.23;3.47;;;15.00;96.70;;;;;;5066105;28;20626;-74
2022/11/19 11:18:57;;;;;;;7.32;3.60;;;15.00;96.70;;;;;;5090513;28;20051;-74
2022/11/19 11:21:37;;;;;;;11.20;4.60;;;15.00;96.70;;;;;;5076848;28;20036;-74
2022/11/19 11:24:06;;;;;;;10.05;4.05;;;15.00;96.70;;;;;;5076962;28;20044;-74
2022/11/19 11:26:36;;;;;;;12.77;4.88;;;15.00;96.70;;;;;;5079453;28;20032;-74
2022/11/19 11:29:21;;;;;;;7.82;3.63;;;14.90;96.70;;;;;;5078213;28;20637;-74
2022/11/19 11:31:49;;;;;;;7.03;3.88;;;14.90;96.70;;;;;;5073341;28;20098;-74
2022/11/19 11:34:29;;;;;;;9.77;4.80;;;14.90;96.70;;;;;;5084297;28;20048;-73
2022/11/19 11:37:00;;;;;;;7.32;3.97;;;14.90;96.70;;;;;;5075187;28;20043;-73
2022/11/19 11:39:31;;;;;;;10.88;3.65;;;14.80;96.70;;;;;;5084223;28;20661;-73
2022/11/19 11:42:00;;;;;;;8.15;3.15;;;14.80;96.70;;;;;;5081044;28;20051;-73
2022/11/19 11:44:47;;;;;;;9.05;3.50;;;14.70;96.70;;;;;;5102113;27;20067;-73
2022/11/19 11:47:17;;;;;;;5.95;2.65;;;14.70;96.70;;;;;;5088545;28;20055;-73
2022/11/19 11:49:48;;;;;;;6.82;2.35;;;14.60;96.70;;;;;;5088051;28;20723;-74
2022/11/19 11:52:20;;;;;;;4.65;2.20;;;14.60;96.70;;;;;;5087639;28;20062;-73
2022/11/19 11:54:56;;;;;;;5.63;2.78;;;14.60;96.70;;;;;;5112065;27;20130;-72
2022/11/19 11:57:26;;;;;;;9.52;3.70;;;14.50;96.70;;;;;;5109719;27;20058;-73
2022/11/19 11:59:55;;;;;;;6.90;2.72;;;14.50;96.70;;;;;;5093934;27;20433;-73
2022/11/19 12:02:34;;;;;;;7.28;2.65;;;14.40;96.70;;;;;;5091368;28;20590;-72
2022/11/19 12:05:04;;;;;;;8.88;3.90;;;14.40;96.70;;;;;;5091885;28;20050;-74
2022/11/19 12:07:57;;;;;;;7.50;3.08;;;14.40;96.70;;;;;;5071861;28;20363;-73
2022/11/19 12:10:31;;;;;;;7.40;2.85;;;14.30;96.70;;;;;;5094614;27;20394;-73
2022/11/19 12:13:49;;;;;;;12.13;3.15;;;14.20;96.70;;;;;;5122053;27;20070;-73
2022/11/19 12:16:21;;;;;;;;;;;14.20;96.70;;;;;;5052335;28;20159;-73
2022/11/19 12:19:04;;;;;;;7.03;2.70;;;14.10;96.70;;;;;;5035053;28;19924;-73
2022/11/19 12:21:41;;;;;;;7.25;2.53;;;14.10;96.70;;;;;;5089052;27;20056;-73
2022/11/19 12:24:27;;;;;;;6.70;2.40;;;14.00;96.70;;;;;;5095127;27;20058;-72
2022/11/19 12:27:03;;;;;;;9.00;4.07;;;14.00;96.70;;;;;;5080167;27;20055;-72
2022/11/19 12:29:44;;;;;;;9.30;2.85;;;13.90;96.70;;;;;;5113971;27;20039;-73
2022/11/19 12:32:27;;;;;;;5.40;2.20;;;13.90;96.70;;;;;;5098617;27;20435;-72
2022/11/19 12:35:34;;;;;;;5.75;2.60;;;13.90;96.70;;;;;;5091094;28;20048;-73
2022/11/19 12:38:31;;;;;;;7.78;2.83;;;13.90;96.70;;;;;;5107739;27;20063;-73
2022/11/19 12:41:23;;;;;;;7.53;2.40;;;13.90;96.70;;;;;;5105669;27;20124;-74
2022/11/19 12:43:57;;;;;;;6.55;2.80;;;13.80;96.70;;;;;;5108309;27;20083;-73
2022/11/19 12:46:36;;;;;;;7.30;3.22;;;13.80;96.70;;;;;;5098323;27;20769;-73
2022/11/19 12:49:35;;;;;;;7.65;3.58;;;13.80;96.70;;;;;;5115114;27;20044;-73
2022/11/19 12:52:16;;;;;;;6.30;2.85;;;13.80;96.70;;;;;;5110986;27;20066;-73
2022/11/19 12:54:55;;;;;;;5.85;2.85;;;13.80;96.70;;;;;;5108534;27;20142;-73
2022/11/19 12:57:42;;;;;;;6.63;2.58;;;13.80;96.70;;;;;;5084428;28;20074;-73
2022/11/19 13:00:14;;;;;;;5.30;2.50;;;13.90;96.70;;;;;;5101263;27;20073;-74
2022/11/19 13:02:52;;;;;;;8.88;5.03;;;13.90;96.70;;;;;;5098869;27;20043;-73
2022/11/19 13:05:27;;;;;;;9.00;6.07;;;13.80;96.70;;;;;;5108983;27;20533;-73
2022/11/19 13:08:01;;;;;;;7.67;4.27;;;13.80;96.70;;;;;;5118440;27;20043;-73
2022/11/19 13:10:34;;;;;;;6.00;2.75;;;13.70;96.70;;;;;;5079123;27;20322;-73
2022/11/19 13:13:07;;;;;;;12.05;3.20;;;13.70;96.70;;;;;;5113741;27;20065;-73
2022/11/19 13:15:41;;;;;;;5.15;2.60;;;13.70;96.70;;;;;;5114307;27;20126;-74
2022/11/19 13:18:15;;;;;;;5.40;2.28;;;13.80;96.70;;;;;;5119700;27;20050;-74
2022/11/19 13:20:46;;;;;;;6.75;2.42;;;13.80;96.70;;;;;;5112666;27;20036;-74
2022/11/19 13:23:21;;;;;;;6.28;2.35;;;13.80;96.70;;;;;;5112558;27;20127;-73
2022/11/19 13:25:57;;;;;;;6.00;2.25;;;13.80;96.70;;;;;;5104560;27;20050;-73
2022/11/19 13:28:34;;;;;;;6.30;2.70;;;13.80;96.70;;;;;;5088445;28;20151;-74